createdAt,value
2022-09-17T00:01:33.127Z,4.97
2022-09-17T00:04:54.472Z,4.82
2022-09-17T00:08:16.137Z,5.15
2022-09-17T00:11:38.749Z,6.03
2022-09-17T00:14:59.845Z,5.85
2022-09-17T00:18:20.129Z,5.93
2022-09-17T00:21:41.081Z,4.75
2022-09-17T00:25:04.149Z,5.70
2022-09-17T00:28:24.845Z,5.50
2022-09-17T00:31:46.313Z,5.20
2022-09-17T00:35:07.254Z,5.30
2022-09-17T00:38:27.552Z,3.55
2022-09-17T00:41:49.205Z,5.15
2022-09-17T00:45:28.473Z,4.68
2022-09-17T00:48:51.149Z,4.40
2022-09-17T00:52:15.372Z,4.60
2022-09-17T00:55:38.486Z,4.95
2022-09-17T00:59:02.026Z,4.90
2022-09-17T01:02:22.302Z,4.90
2022-09-17T01:05:43.544Z,4.45
2022-09-17T01:09:19.541Z,4.03
2022-09-17T01:12:51.785Z,4.72
2022-09-17T01:16:19.898Z,4.45
2022-09-17T01:19:53.338Z,4.60
2022-09-17T01:23:27.724Z,4.55
2022-09-17T01:27:05.681Z,3.90
2022-09-17T01:30:50.477Z,4.57
2022-09-17T01:34:18.189Z,4.03
2022-09-17T01:37:46.388Z,4.28
2022-09-17T01:41:11.490Z,4.38
2022-09-17T01:44:36.961Z,5.03
2022-09-17T01:48:00.227Z,4.00
2022-09-17T01:51:24.112Z,4.90
2022-09-17T01:54:49.263Z,4.10
2022-09-17T01:58:12.546Z,5.70
2022-09-17T02:01:35.076Z,4.32
2022-09-17T02:04:58.856Z,4.15
2022-09-17T02:08:22.033Z,3.63
2022-09-17T02:11:45.469Z,4.45
2022-09-17T02:15:08.968Z,3.78
2022-09-17T02:18:32.344Z,3.80
2022-09-17T02:21:58.226Z,3.67
2022-09-17T02:25:21.736Z,4.55
2022-09-17T02:28:49.093Z,4.53
2022-09-17T02:32:10.169Z,3.95
2022-09-17T02:35:32.051Z,4.07
2022-09-17T02:38:55.931Z,3.08
2022-09-17T02:42:23.256Z,3.60
2022-09-17T02:45:54.597Z,3.95
2022-09-17T02:49:25.981Z,3.28
2022-09-17T02:52:56.221Z,3.63
2022-09-17T02:56:20.526Z,3.60
2022-09-17T02:59:47.831Z,4.38
2022-09-17T03:03:11.640Z,3.22
2022-09-17T03:06:33.028Z,3.60
2022-09-17T03:09:53.632Z,4.30
2022-09-17T03:13:13.997Z,3.50
2022-09-17T03:16:36.236Z,3.15
2022-09-17T03:19:56.811Z,3.33
2022-09-17T03:23:17.333Z,3.55
2022-09-17T03:26:37.710Z,3.75
2022-09-17T03:29:59.349Z,3.92
2022-09-17T03:33:21.016Z,3.42
2022-09-17T03:36:41.617Z,3.65
2022-09-17T03:40:02.395Z,3.17
2022-09-17T03:43:22.725Z,3.47
2022-09-17T03:46:43.691Z,3.97
2022-09-17T03:50:05.962Z,3.75
2022-09-17T03:53:26.198Z,3.35
2022-09-17T03:56:46.555Z,3.33
2022-09-17T04:00:08.533Z,4.95
2022-09-17T04:03:35.018Z,3.55
2022-09-17T04:06:56.661Z,3.72
2022-09-17T04:10:17.082Z,3.85
2022-09-17T04:13:40.108Z,3.17
2022-09-17T04:17:00.818Z,3.30
2022-09-17T04:20:21.086Z,4.72
2022-09-17T04:23:42.844Z,3.67
2022-09-17T04:27:03.140Z,4.43
2022-09-17T04:30:26.522Z,4.43
2022-09-17T04:33:46.801Z,2.83
2022-09-17T04:37:07.145Z,3.80
2022-09-17T04:40:28.904Z,3.30
2022-09-17T04:43:50.061Z,3.85
2022-09-17T04:47:10.660Z,5.55
2022-09-17T04:50:31.062Z,3.55
2022-09-17T04:53:51.371Z,3.35
2022-09-17T04:57:13.224Z,3.92
2022-09-17T05:00:33.835Z,3.72
2022-09-17T05:03:54.445Z,3.90
2022-09-17T05:07:14.730Z,3.90
2022-09-17T05:10:35.013Z,4.93
2022-09-17T05:13:56.745Z,3.70
2022-09-17T05:17:17.560Z,3.38
2022-09-17T05:20:37.792Z,4.03
2022-09-17T05:23:58.236Z,3.80
2022-09-17T05:27:18.840Z,3.67
2022-09-17T05:30:40.455Z,4.38
2022-09-17T05:34:00.730Z,3.33
2022-09-17T05:37:20.976Z,4.25
2022-09-17T05:40:41.313Z,4.88
2022-09-17T05:44:01.546Z,4.22
2022-09-17T05:47:23.514Z,3.78
2022-09-17T05:50:43.876Z,4.15
2022-09-17T05:54:05.329Z,3.53
2022-09-17T05:57:25.589Z,4.53
2022-09-17T06:00:46.606Z,5.00
2022-09-17T06:04:10.255Z,3.55
2022-09-17T06:07:30.979Z,3.47
2022-09-17T06:10:51.264Z,3.72
2022-09-17T06:14:12.092Z,3.53
2022-09-17T06:17:33.906Z,3.00
2022-09-17T06:20:55.965Z,4.05
2022-09-17T06:24:16.349Z,5.25
2022-09-17T06:27:36.644Z,3.63
2022-09-17T06:31:00.682Z,3.50
2022-09-17T06:34:21.189Z,3.35
2022-09-17T06:37:43.457Z,2.75
2022-09-17T06:41:04.232Z,2.75
2022-09-17T06:44:24.522Z,3.10
2022-09-17T06:47:44.948Z,2.85
2022-09-17T06:51:06.329Z,2.55
2022-09-17T06:54:28.975Z,2.10
2022-09-17T06:57:49.287Z,2.47
2022-09-17T07:01:10.150Z,3.00
2022-09-17T07:04:30.732Z,2.15
2022-09-17T07:07:50.970Z,2.85
2022-09-17T07:11:13.473Z,2.03
2022-09-17T07:14:33.789Z,2.28
2022-09-17T07:17:54.514Z,3.58
2022-09-17T07:21:14.890Z,4.00
2022-09-17T07:24:35.084Z,3.38
2022-09-17T07:27:56.794Z,3.03
2022-09-17T07:31:17.292Z,3.70
2022-09-17T07:34:37.678Z,2.50
2022-09-17T07:37:57.859Z,2.25
2022-09-17T07:41:18.403Z,2.58
2022-09-17T07:44:40.254Z,2.53
2022-09-17T07:48:00.832Z,2.50
2022-09-17T07:51:22.850Z,2.45
2022-09-17T07:54:45.358Z,2.60
2022-09-17T07:58:05.607Z,3.00
2022-09-17T08:01:27.394Z,3.08
2022-09-17T08:04:48.301Z,3.03
2022-09-17T08:08:08.618Z,2.90
2022-09-17T08:11:54.651Z,3.15
2022-09-17T08:15:10.255Z,3.42
2022-09-17T08:18:32.003Z,3.00
2022-09-17T08:21:52.941Z,3.20
2022-09-17T08:25:13.493Z,3.45
2022-09-17T08:28:33.950Z,3.70
2022-09-17T08:31:54.726Z,3.28
2022-09-17T08:35:18.037Z,3.72
2022-09-17T08:38:38.574Z,3.50
2022-09-17T08:42:06.508Z,3.45
2022-09-17T08:45:32.358Z,3.08
2022-09-17T08:49:02.871Z,4.13
2022-09-17T08:52:37.524Z,3.47
2022-09-17T08:56:02.134Z,3.97
2022-09-17T08:59:35.137Z,3.60
2022-09-17T09:03:08.626Z,3.80
2022-09-17T09:06:36.366Z,3.72
2022-09-17T09:10:03.874Z,3.17
2022-09-17T09:13:28.437Z,3.53
2022-09-17T09:16:50.420Z,4.20
2022-09-17T09:20:14.466Z,3.63
2022-09-17T09:23:44.216Z,3.90
2022-09-17T09:27:14.420Z,4.25
2022-09-17T09:30:41.115Z,4.10
2022-09-17T09:34:05.507Z,4.35
2022-09-17T09:37:27.941Z,5.30
2022-09-17T09:40:55.365Z,5.68
2022-09-17T09:44:18.915Z,4.25
2022-09-17T09:47:52.087Z,4.13
2022-09-17T09:50:42.947Z,2.60
2022-09-17T09:54:15.343Z,2.10
2022-09-17T09:57:46.882Z,1.55
2022-09-17T10:01:20.370Z,2.30
2022-09-17T10:04:41.320Z,2.00
2022-09-17T10:08:02.325Z,2.50
2022-09-17T10:11:23.384Z,2.20
2022-09-17T10:14:45.534Z,2.70
2022-09-17T10:18:12.887Z,2.45
2022-09-17T10:21:43.354Z,2.47
2022-09-17T10:25:30.508Z,2.40
2022-09-17T10:28:53.056Z,2.20
2022-09-17T10:32:15.587Z,2.08
2022-09-17T10:35:37.032Z,2.30
2022-09-17T10:38:57.237Z,2.67
2022-09-17T10:42:18.352Z,2.63
2022-09-17T10:45:46.274Z,2.90
2022-09-17T10:49:08.107Z,3.15
2022-09-17T10:52:31.306Z,2.42
2022-09-17T10:59:57.674Z,2.60
2022-09-17T11:03:44.144Z,2.95
2022-09-17T11:07:29.732Z,2.22
2022-09-17T11:10:55.174Z,2.70
2022-09-17T11:14:36.835Z,2.20
2022-09-17T11:18:23.289Z,2.45
2022-09-17T11:21:52.850Z,2.60
2022-09-17T11:25:23.330Z,2.70
2022-09-17T11:28:52.865Z,2.17
2022-09-17T11:32:27.449Z,2.25
2022-09-17T11:35:53.643Z,2.25
2022-09-17T11:39:17.625Z,2.75
2022-09-17T11:42:40.738Z,2.60
2022-09-17T11:46:08.738Z,2.67
2022-09-17T11:49:34.813Z,2.50
2022-09-17T11:53:00.655Z,4.75
2022-09-17T11:56:26.556Z,3.15
2022-09-17T11:59:52.996Z,2.90
2022-09-17T12:03:17.501Z,3.17
2022-09-17T12:06:43.604Z,2.50
2022-09-17T12:10:13.350Z,2.13
2022-09-17T12:13:38.916Z,3.10
2022-09-17T12:17:12.461Z,3.05
2022-09-17T12:20:35.159Z,2.97
2022-09-17T12:23:59.319Z,3.13
2022-09-17T12:27:38.166Z,2.80
2022-09-17T12:31:01.261Z,3.50
2022-09-17T12:34:28.276Z,3.90
2022-09-17T12:37:56.789Z,2.90
2022-09-17T12:41:21.699Z,3.80
2022-09-17T12:45:10.744Z,3.92
2022-09-17T12:49:07.322Z,3.40
2022-09-17T12:52:41.630Z,3.13
2022-09-17T12:56:20.985Z,3.30
2022-09-17T12:59:50.730Z,3.40
2022-09-17T13:03:17.049Z,3.60
2022-09-17T13:07:11.921Z,3.90
2022-09-17T13:10:52.640Z,3.70
2022-09-17T13:14:21.764Z,3.30
2022-09-17T13:18:06.045Z,3.83
2022-09-17T13:21:34.970Z,3.60
2022-09-17T13:25:02.375Z,6.45
2022-09-17T13:28:23.234Z,4.30
2022-09-17T13:31:52.410Z,3.30
2022-09-17T13:35:41.625Z,1.60
2022-09-17T13:39:02.011Z,1.17
2022-09-17T13:42:27.950Z,0.90
2022-09-17T13:46:13.438Z,0.90
2022-09-17T13:49:46.789Z,2.13
2022-09-17T13:53:07.635Z,1.38
2022-09-17T13:56:31.767Z,1.20
2022-09-17T13:59:59.530Z,1.10
2022-09-17T14:03:44.676Z,1.13
2022-09-17T14:07:33.560Z,1.10
2022-09-17T14:10:54.577Z,1.20
2022-09-17T14:14:38.057Z,2.33
2022-09-17T14:17:59.832Z,1.52
2022-09-17T14:21:24.670Z,1.00
2022-09-17T14:24:49.876Z,0.85
2022-09-17T14:28:32.181Z,1.00
2022-09-17T14:31:54.130Z,1.20
2022-09-17T14:35:20.486Z,1.00
2022-09-17T14:38:45.246Z,1.10
2022-09-17T14:42:14.823Z,1.58
2022-09-17T14:45:42.456Z,1.38
2022-09-17T14:49:17.349Z,1.25
2022-09-17T14:52:39.155Z,1.20
2022-09-17T14:56:04.218Z,1.35
2022-09-17T14:59:36.186Z,1.33
2022-09-17T15:02:59.383Z,1.27
2022-09-17T15:06:21.784Z,1.30
2022-09-17T15:09:43.513Z,1.50
2022-09-17T15:13:11.315Z,1.30
2022-09-17T15:16:33.446Z,1.40
2022-09-17T15:19:55.363Z,1.25
2022-09-17T15:23:18.394Z,0.95
2022-09-17T15:26:41.502Z,1.30
2022-09-17T15:30:05.546Z,0.80
2022-09-17T15:33:26.889Z,1.00
2022-09-17T15:37:17.964Z,1.30
2022-09-17T15:40:41.990Z,0.90
2022-09-17T15:44:29.035Z,1.20
2022-09-17T15:48:10.948Z,1.52
2022-09-17T15:51:43.690Z,1.10
2022-09-17T15:55:31.660Z,0.75
2022-09-17T15:58:54.897Z,1.17
2022-09-17T16:02:33.253Z,1.02
2022-09-17T16:06:37.022Z,1.10
2022-09-17T16:10:15.651Z,1.30
2022-09-17T16:13:35.875Z,0.98
2022-09-17T16:16:59.646Z,1.25
2022-09-17T16:20:21.874Z,1.15
2022-09-17T16:23:42.492Z,1.15
2022-09-17T16:27:06.347Z,1.27
2022-09-17T16:30:26.927Z,1.13
2022-09-17T16:33:48.604Z,1.08
2022-09-17T16:37:10.356Z,1.10
2022-09-17T16:40:31.135Z,1.13
2022-09-17T16:43:53.693Z,1.15
2022-09-17T16:47:14.064Z,2.13
2022-09-17T16:50:35.856Z,1.23
2022-09-17T16:53:59.897Z,1.60
2022-09-17T16:57:20.174Z,1.50
2022-09-17T17:00:42.943Z,1.33
2022-09-17T17:04:05.490Z,1.40
2022-09-17T17:07:27.098Z,1.50
2022-09-17T17:10:47.888Z,1.73
2022-09-17T17:14:14.539Z,1.73
2022-09-17T17:17:35.868Z,1.77
2022-09-17T17:20:57.065Z,1.50
2022-09-17T17:24:18.944Z,2.47
2022-09-17T17:27:41.394Z,2.50
2022-09-17T17:31:03.081Z,3.35
2022-09-17T17:34:23.813Z,2.22
2022-09-17T17:37:44.594Z,2.50
2022-09-17T17:41:07.230Z,1.55
2022-09-17T17:44:27.665Z,1.70
2022-09-17T17:47:50.718Z,1.70
2022-09-17T17:51:15.953Z,1.25
2022-09-17T17:54:36.534Z,1.23
2022-09-17T17:58:01.429Z,1.40
2022-09-17T18:01:22.916Z,1.40
2022-09-17T18:04:43.192Z,1.63
2022-09-17T18:08:03.484Z,2.60
2022-09-17T18:11:23.822Z,2.63
2022-09-17T18:14:46.205Z,1.95
2022-09-17T18:18:06.637Z,2.13
2022-09-17T18:21:27.598Z,2.65
2022-09-17T18:24:47.869Z,2.95
2022-09-17T18:28:08.141Z,2.13
2022-09-17T18:31:31.840Z,2.10
2022-09-17T18:34:57.834Z,2.20
2022-09-17T18:38:18.121Z,1.90
2022-09-17T18:41:40.110Z,2.58
2022-09-17T18:45:01.358Z,1.83
2022-09-17T18:48:23.217Z,2.10
2022-09-17T18:51:50.329Z,2.20
2022-09-17T18:55:13.130Z,2.17
2022-09-17T18:58:33.683Z,2.05
2022-09-17T19:01:54.013Z,2.80
2022-09-17T19:05:18.136Z,2.00
2022-09-17T19:08:39.090Z,2.15
2022-09-17T19:11:59.652Z,2.30
2022-09-17T19:15:20.379Z,2.35
2022-09-17T19:18:40.625Z,2.00
2022-09-17T19:22:07.844Z,3.35
2022-09-17T19:25:29.081Z,3.17
2022-09-17T19:28:49.994Z,2.72
2022-09-17T19:32:12.717Z,2.60
2022-09-17T19:35:33.129Z,2.30
2022-09-17T19:38:54.990Z,2.70
2022-09-17T19:42:16.188Z,2.85
2022-09-17T19:45:39.501Z,2.72
2022-09-17T19:49:03.256Z,2.40
2022-09-17T19:52:23.517Z,2.95
2022-09-17T19:55:45.931Z,3.30
2022-09-17T19:59:07.085Z,3.17
2022-09-17T20:02:29.354Z,3.03
2022-09-17T20:05:49.649Z,2.47
2022-09-17T20:09:10.034Z,3.03
2022-09-17T20:12:32.301Z,2.55
2022-09-17T20:15:52.646Z,2.50
2022-09-17T20:19:14.624Z,2.72
2022-09-17T20:22:35.077Z,2.53
2022-09-17T20:25:55.381Z,2.97
2022-09-17T20:29:19.565Z,3.05
2022-09-17T20:32:42.006Z,4.35
2022-09-17T20:36:06.003Z,2.90
2022-09-17T20:39:26.975Z,2.90
2022-09-17T20:42:49.831Z,2.95
2022-09-17T20:46:11.735Z,2.50
2022-09-17T20:49:32.029Z,2.95
2022-09-17T20:52:52.285Z,2.47
2022-09-17T20:56:14.461Z,2.50
2022-09-17T20:59:51.145Z,3.30
2022-09-17T21:03:13.594Z,2.70
2022-09-17T21:06:38.019Z,2.35
2022-09-17T21:10:01.204Z,3.92
2022-09-17T21:13:21.419Z,2.40
2022-09-17T21:16:51.786Z,2.33
2022-09-17T21:20:15.049Z,2.70
2022-09-17T21:23:37.048Z,2.28
2022-09-17T21:26:59.719Z,2.05
2022-09-17T21:30:20.071Z,3.03
2022-09-17T21:33:44.709Z,2.50
2022-09-17T21:37:07.410Z,2.38
2022-09-17T21:40:27.790Z,2.13
2022-09-17T21:43:48.238Z,1.95
2022-09-17T21:47:12.432Z,2.72
2022-09-17T21:50:32.845Z,2.10
2022-09-17T21:53:55.477Z,2.35
2022-09-17T21:57:16.270Z,2.35
2022-09-17T22:00:37.250Z,4.82
2022-09-17T22:03:58.126Z,1.77
2022-09-17T22:07:19.815Z,2.00
2022-09-17T22:10:41.917Z,2.00
2022-09-17T22:14:07.385Z,2.08
2022-09-17T22:17:28.194Z,1.58
2022-09-17T22:20:48.443Z,1.73
2022-09-17T22:24:08.839Z,2.30
2022-09-17T22:27:32.894Z,1.70
2022-09-17T22:30:53.228Z,1.70
2022-09-17T22:34:14.342Z,1.90
2022-09-17T22:37:34.892Z,1.63
2022-09-17T22:40:58.208Z,1.55
2022-09-17T22:44:20.325Z,1.27
2022-09-17T22:47:43.096Z,1.60
2022-09-17T22:51:03.627Z,2.13
2022-09-17T22:54:27.085Z,1.98
2022-09-17T22:57:47.382Z,1.55
2022-09-17T23:01:11.126Z,2.20
2022-09-17T23:04:33.731Z,1.50
2022-09-17T23:07:54.011Z,1.98
2022-09-17T23:11:18.838Z,1.40
2022-09-17T23:14:39.181Z,1.73
2022-09-17T23:18:02.806Z,2.15
2022-09-17T23:21:23.396Z,1.88
2022-09-17T23:24:43.879Z,2.05
2022-09-17T23:28:04.402Z,1.73
2022-09-17T23:31:25.125Z,2.47
2022-09-17T23:34:46.999Z,1.92
2022-09-17T23:38:07.487Z,1.80
2022-09-17T23:41:28.498Z,2.00
2022-09-17T23:44:49.829Z,1.95
2022-09-17T23:48:10.256Z,1.67
2022-09-17T23:51:32.737Z,1.70
2022-09-17T23:54:57.732Z,2.30
2022-09-17T23:58:18.900Z,2.35
